Nashville (BNA/KBNA)

Information

Location
Nashville, TN
Local Time
18:41 / 6:41 pm
GMT Time
23:41 / 11:41 pm
No FAA reported delays
METAR KBNA 232253Z 06006KT 10SM FEW055 SCT200 29/19 A3001 RMK AO2 SLP156 T02940194
TAF KBNA 231740Z 2318/2418 06004KT P6SM SKC FM240600 12003KT P6SM SKC FM241600 16006KT P6SM SCT040